Dane County Regional Truax Field
KMSN : now visible

Airfield :











YOU CAN JOIN US ON...

 
LOGIN :

Register | Disclaimer

   EN    FR    IT 

 









Legend :    VFR   Marginal VFR   IFR   Intensive IFR   Very Intensive IFR
Visi :
Ceiling :
>= 8 km
>= 3000ft
5 to 8 km
1000 to 3000 ft
1500m to 5 km
500 to 1000 ft
800 to 1500m
200 to 500 ft
< 800m
< 200 ft
Symbols :   Thunderstorms  Fog  Heavy snow  Heavy precipitations  Wind > 20 kt






- Airport Elevation : 887 ft
- IATA code : MSN


KMSN - Dane County Regional Truax Field

CURRENT METAR :
  • 030900Z AUTO 00000KT 1/2SM R36/P6000FT FG FEW002 BKN075 16/15 A3010 RMK AO2 T01610150

EXPIRED METARs :
  • 030853Z AUTO 00000KT 1SM R36/P6000FT BR FEW002 BKN075 17/16 A3010 RMK AO2 SLP190 T01670156 52005
  • 030826Z AUTO 00000KT 1 3/4SM BR FEW070 17/16 A3009 RMK AO2 VIS 3/4V4 T01670156
  • 030810Z AUTO 00000KT 3SM BR BKN070 17/16 A3009 RMK AO2 T01670156
  • 030757Z AUTO 00000KT 1 1/4SM BR FEW003 BKN070 BKN085 17/16 A3009 RMK AO2 T01670156
  • 030750Z AUTO 00000KT 2SM BR BKN075 17/16 A3010 RMK AO2
  • 030724Z AUTO 00000KT 4SM BR BKN080 17/16 A3009 RMK AO2 T01720156
  • 030704Z AUTO 00000KT 2 1/2SM BR BKN080 17/15 A3009 RMK AO2 T01670150
  • 030653Z AUTO 00000KT 3SM BR BKN080 17/16 A3009 RMK AO2 SLP184 T01670156
  • 030627Z AUTO 00000KT 3SM BR SCT080 17/16 A3009 RMK AO2 T01670156

TAF KMSN
Valid from the 03 at 09:00 until the 04 at 06:00 UTC


030846Z 0309/0406 00000KT 2SM BR BKN080
FM031400 VRB03KT P6SM SCT060
FM031800 19005KT P6SM FEW110
KZAU FIR / North America



MET'MAP, your aeronautical weather chart ! - Copyright ORBIFLY December 2007 - Disclaimer

ORBIFLY MET'MAP TEAM :

Programming & Development : Alexandra Zaïnal
Original concept : Baudouin d'Aumeries
Technical & hardware support : Manuel Goepfert
Assistance : Marc-Olivier Méhu




SOURCES & CREDITS :

   NOAA       Earth
Advisory